createdAt,value
2023-02-28T00:00:27.860Z,8.90
2023-02-28T00:02:55.823Z,9.77
2023-02-28T00:05:24.491Z,9.80
2023-02-28T00:07:54.139Z,5.90
2023-02-28T00:10:23.887Z,7.97
2023-02-28T00:12:52.000Z,7.30
2023-02-28T00:15:19.871Z,9.30
2023-02-28T00:17:47.814Z,7.07
2023-02-28T00:20:15.649Z,9.53
2023-02-28T00:22:43.968Z,6.60
2023-02-28T00:25:14.178Z,9.40
2023-02-28T00:27:42.411Z,7.93
2023-02-28T00:30:11.606Z,8.63
2023-02-28T00:32:39.938Z,11.70
2023-02-28T00:35:08.608Z,7.07
2023-02-28T00:37:36.633Z,8.17
2023-02-28T00:40:06.989Z,9.90
2023-02-28T00:42:36.167Z,8.50
2023-02-28T00:45:06.317Z,11.00
2023-02-28T00:47:34.231Z,11.83
2023-02-28T00:50:02.328Z,10.17
2023-02-28T00:52:30.423Z,10.63
2023-02-28T00:54:58.325Z,7.73
2023-02-28T00:57:26.067Z,9.23
2023-02-28T00:59:56.682Z,18.27
2023-02-28T01:02:24.513Z,7.07
2023-02-28T01:04:54.641Z,10.57
2023-02-28T01:07:22.789Z,10.90
2023-02-28T01:09:50.538Z,9.80
2023-02-28T01:12:18.467Z,10.33
2023-02-28T01:14:48.340Z,9.50
2023-02-28T01:17:17.496Z,14.93
2023-02-28T01:19:45.475Z,11.20
2023-02-28T01:22:13.302Z,7.80
2023-02-28T01:24:43.260Z,12.20
2023-02-28T01:27:14.425Z,10.03
2023-02-28T01:29:42.141Z,12.67
2023-02-28T01:32:10.821Z,12.00
2023-02-28T01:34:41.234Z,14.73
2023-02-28T01:37:09.013Z,16.70
2023-02-28T01:39:36.691Z,12.80
2023-02-28T01:42:04.970Z,12.60
2023-02-28T01:44:53.656Z,9.50
2023-02-28T01:47:21.719Z,7.73
2023-02-28T01:49:52.472Z,11.77
2023-02-28T01:52:21.092Z,10.40
2023-02-28T01:54:52.490Z,11.10
2023-02-28T01:57:22.346Z,12.43
2023-02-28T01:59:52.043Z,9.50
2023-02-28T02:02:21.540Z,11.13
2023-02-28T02:04:53.568Z,12.80
2023-02-28T02:07:21.890Z,14.60
2023-02-28T02:09:49.508Z,10.70
2023-02-28T02:12:24.091Z,14.90
2023-02-28T02:14:57.283Z,10.90
2023-02-28T02:17:29.773Z,8.40
2023-02-28T02:20:21.627Z,11.00
2023-02-28T02:23:10.770Z,12.80
2023-02-28T02:25:41.970Z,9.67
2023-02-28T02:28:22.845Z,11.90
2023-02-28T02:31:01.484Z,12.07
2023-02-28T02:33:47.728Z,9.30
2023-02-28T02:36:19.961Z,11.27
2023-02-28T02:38:50.987Z,14.90
2023-02-28T02:41:20.401Z,8.80
2023-02-28T02:43:49.950Z,10.90
2023-02-28T02:46:21.089Z,11.20
2023-02-28T02:48:49.006Z,11.93
2023-02-28T02:51:18.719Z,11.20
2023-02-28T02:53:51.375Z,14.60
2023-02-28T02:56:20.602Z,11.00
2023-02-28T02:58:50.058Z,10.60
2023-02-28T03:01:29.438Z,11.80
2023-02-28T03:03:59.095Z,11.70
2023-02-28T03:06:29.136Z,15.63
2023-02-28T03:08:56.900Z,11.27
2023-02-28T03:11:24.804Z,15.97
2023-02-28T03:14:11.354Z,11.97
2023-02-28T03:16:52.056Z,13.53
2023-02-28T03:19:27.423Z,13.67
2023-02-28T03:22:02.759Z,15.00
2023-02-28T03:24:34.556Z,9.70
2023-02-28T03:27:06.907Z,10.93
2023-02-28T03:29:36.367Z,10.00
2023-02-28T03:32:07.431Z,12.20
2023-02-28T03:34:36.201Z,11.57
2023-02-28T03:37:08.183Z,10.53
2023-02-28T03:39:37.796Z,10.90
2023-02-28T03:42:07.794Z,14.17
2023-02-28T03:44:37.121Z,11.97
2023-02-28T03:47:06.764Z,12.93
2023-02-28T03:49:37.569Z,12.43
2023-02-28T03:52:07.955Z,11.40
2023-02-28T03:54:38.500Z,12.50
2023-02-28T03:57:09.915Z,10.73
2023-02-28T03:59:39.821Z,16.40
2023-02-28T04:02:07.729Z,11.63
2023-02-28T04:04:35.713Z,12.57
2023-02-28T04:07:04.628Z,9.80
2023-02-28T04:09:34.016Z,12.53
2023-02-28T04:12:02.455Z,13.33
2023-02-28T04:14:30.108Z,13.30
2023-02-28T04:16:58.023Z,22.00
2023-02-28T04:19:25.631Z,17.03
2023-02-28T04:21:54.495Z,11.10
2023-02-28T04:24:22.758Z,11.10
2023-02-28T04:26:53.017Z,12.23
2023-02-28T04:29:22.014Z,13.10
2023-02-28T04:31:49.953Z,14.63
2023-02-28T04:34:17.994Z,11.40
2023-02-28T04:36:46.826Z,12.33
2023-02-28T04:39:14.880Z,11.77
2023-02-28T04:41:43.165Z,12.47
2023-02-28T04:44:12.325Z,15.10
2023-02-28T04:46:40.387Z,13.13
2023-02-28T04:49:08.317Z,13.13
2023-02-28T04:51:35.976Z,11.47
2023-02-28T04:54:03.581Z,11.87
2023-02-28T04:56:32.106Z,11.70
2023-02-28T04:58:59.929Z,13.60
2023-02-28T05:01:30.686Z,13.47
2023-02-28T05:04:00.115Z,12.30
2023-02-28T05:06:29.223Z,13.53
2023-02-28T05:08:57.465Z,12.47
2023-02-28T05:11:27.438Z,14.03
2023-02-28T05:13:56.193Z,11.67
2023-02-28T05:16:24.227Z,13.13
2023-02-28T05:18:55.055Z,13.60
2023-02-28T05:21:27.304Z,12.47
2023-02-28T05:23:55.981Z,14.60
2023-02-28T05:26:23.989Z,11.07
2023-02-28T05:28:51.860Z,17.17
2023-02-28T05:31:19.773Z,10.67
2023-02-28T05:33:47.663Z,12.33
2023-02-28T05:36:16.746Z,10.83
2023-02-28T05:38:45.000Z,10.20
2023-02-28T05:41:12.892Z,11.73
2023-02-28T05:43:41.721Z,13.03
2023-02-28T05:46:11.287Z,14.07
2023-02-28T05:48:39.499Z,11.90
2023-02-28T05:51:08.014Z,14.70
2023-02-28T05:53:37.762Z,13.40
2023-02-28T05:56:05.799Z,13.60
2023-02-28T05:58:34.466Z,14.80
2023-02-28T06:01:02.881Z,12.43
2023-02-28T06:03:30.636Z,19.07
2023-02-28T06:05:58.301Z,13.63
2023-02-28T06:08:26.827Z,14.97
2023-02-28T06:10:55.735Z,10.47
2023-02-28T06:13:26.450Z,15.60
2023-02-28T06:15:54.150Z,14.77
2023-02-28T06:18:22.220Z,15.90
2023-02-28T06:20:55.442Z,16.23
2023-02-28T06:23:23.186Z,18.40
2023-02-28T06:25:50.892Z,17.27
2023-02-28T06:28:22.124Z,22.73
2023-02-28T06:30:49.871Z,12.60
2023-02-28T06:33:17.539Z,15.23
2023-02-28T06:35:46.061Z,19.07
2023-02-28T06:38:13.986Z,20.40
2023-02-28T06:40:41.814Z,16.50
2023-02-28T06:43:09.708Z,16.77
2023-02-28T06:45:38.809Z,15.23
2023-02-28T06:48:07.172Z,19.80
2023-02-28T06:50:35.313Z,17.53
2023-02-28T06:53:02.935Z,20.07
2023-02-28T06:55:30.842Z,25.90
2023-02-28T06:57:59.201Z,23.33
2023-02-28T07:00:27.063Z,95.63
2023-02-28T07:02:56.608Z,35.70
2023-02-28T07:05:24.703Z,38.13
2023-02-28T07:07:53.604Z,27.90
2023-02-28T07:10:21.496Z,24.40
2023-02-28T07:12:50.443Z,23.53
2023-02-28T07:15:18.150Z,20.93
2023-02-28T07:17:46.125Z,21.40
2023-02-28T07:20:15.488Z,21.63
2023-02-28T07:22:43.664Z,17.63
2023-02-28T07:25:11.556Z,19.27
2023-02-28T07:27:39.284Z,19.10
2023-02-28T07:30:07.629Z,16.97
2023-02-28T07:32:38.841Z,22.70
2023-02-28T07:35:07.351Z,16.33
2023-02-28T07:37:37.431Z,13.33
2023-02-28T07:40:09.287Z,12.57
2023-02-28T07:42:37.153Z,9.80
2023-02-28T07:45:06.465Z,20.53
2023-02-28T07:47:34.331Z,14.40
2023-02-28T07:50:02.049Z,19.90
2023-02-28T07:52:29.892Z,14.30
2023-02-28T07:54:58.993Z,13.23
2023-02-28T07:57:27.004Z,16.67
2023-02-28T07:59:54.639Z,17.83
2023-02-28T08:02:22.668Z,10.87
2023-02-28T08:04:51.318Z,13.90
2023-02-28T08:07:19.841Z,13.17
2023-02-28T08:09:47.568Z,11.93
2023-02-28T08:12:17.120Z,13.33
2023-02-28T08:14:44.840Z,12.47
2023-02-28T08:17:12.756Z,11.70
2023-02-28T08:19:40.472Z,17.50
2023-02-28T08:22:08.541Z,24.10
2023-02-28T08:24:36.458Z,11.50
2023-02-28T08:27:04.198Z,18.33
2023-02-28T08:29:33.208Z,11.20
2023-02-28T08:32:01.007Z,13.03
2023-02-28T08:34:28.904Z,13.37
2023-02-28T08:36:56.622Z,23.80
2023-02-28T08:39:24.302Z,12.00
2023-02-28T08:42:02.144Z,10.80
2023-02-28T08:44:36.452Z,11.77
2023-02-28T08:47:04.414Z,17.70
2023-02-28T08:49:32.129Z,10.23
2023-02-28T08:52:00.121Z,9.27
2023-02-28T08:54:29.977Z,13.60
2023-02-28T08:56:57.793Z,5.00
2023-02-28T08:59:25.748Z,5.70
2023-02-28T09:01:54.724Z,8.30
2023-02-28T09:04:25.180Z,7.27
2023-02-28T09:06:54.128Z,9.70
2023-02-28T09:09:22.042Z,11.97
2023-02-28T09:11:49.681Z,8.23
2023-02-28T09:14:18.407Z,9.53
2023-02-28T09:16:46.251Z,11.03
2023-02-28T09:19:15.524Z,9.27
2023-02-28T09:21:43.299Z,9.07
2023-02-28T09:24:12.989Z,6.47
2023-02-28T09:26:47.258Z,11.13
2023-02-28T09:29:23.751Z,13.00
2023-02-28T09:31:51.961Z,7.53
2023-02-28T09:34:21.359Z,8.70
2023-02-28T09:36:50.013Z,8.20
2023-02-28T09:39:18.181Z,6.77
2023-02-28T09:41:51.367Z,7.27
2023-02-28T09:44:22.689Z,6.63
2023-02-28T09:46:53.520Z,8.97
2023-02-28T09:49:25.803Z,5.63
2023-02-28T09:51:58.337Z,5.03
2023-02-28T09:54:26.771Z,8.83
2023-02-28T09:56:58.094Z,9.30
2023-02-28T09:59:31.739Z,8.80
2023-02-28T10:02:02.708Z,11.13
2023-02-28T10:04:44.727Z,7.80
2023-02-28T10:07:21.889Z,10.97
2023-02-28T10:09:53.572Z,13.80
2023-02-28T10:12:21.816Z,8.60
2023-02-28T10:14:51.488Z,5.10
2023-02-28T10:17:22.144Z,8.97
2023-02-28T10:19:56.184Z,7.10
2023-02-28T10:22:26.585Z,5.37
2023-02-28T10:24:57.422Z,7.20
2023-02-28T10:27:25.863Z,9.67
2023-02-28T10:29:55.025Z,9.93
2023-02-28T10:32:23.952Z,9.93
2023-02-28T10:34:56.143Z,7.53
2023-02-28T10:37:23.843Z,9.67
2023-02-28T10:39:51.827Z,6.47
2023-02-28T10:42:26.884Z,8.53
2023-02-28T10:45:15.668Z,7.37
2023-02-28T10:47:53.403Z,8.37
2023-02-28T10:50:31.017Z,6.10
2023-02-28T10:53:07.237Z,7.67
2023-02-28T10:55:35.056Z,8.57
2023-02-28T10:58:02.807Z,7.00
2023-02-28T11:00:34.676Z,10.60
2023-02-28T11:03:02.411Z,6.73
2023-02-28T11:05:32.669Z,8.90
2023-02-28T11:08:05.786Z,7.03
2023-02-28T11:10:35.577Z,11.00
2023-02-28T11:13:04.573Z,6.40
2023-02-28T11:15:33.412Z,9.03
2023-02-28T11:18:02.744Z,11.30
2023-02-28T11:20:33.617Z,7.40
2023-02-28T11:23:03.440Z,11.00
2023-02-28T11:25:32.178Z,10.83
2023-02-28T11:28:02.398Z,7.77
2023-02-28T11:30:36.050Z,8.67
2023-02-28T11:33:20.777Z,15.93
2023-02-28T11:35:50.182Z,6.90
2023-02-28T11:38:18.340Z,10.57
2023-02-28T11:40:50.540Z,19.80
2023-02-28T11:43:30.258Z,11.47
2023-02-28T11:46:05.729Z,9.87
2023-02-28T11:48:37.834Z,8.10
2023-02-28T11:51:11.889Z,13.40
2023-02-28T11:53:50.539Z,18.30
2023-02-28T11:56:21.569Z,29.13
2023-02-28T11:58:54.748Z,16.57
2023-02-28T12:01:37.598Z,11.87
2023-02-28T12:04:12.970Z,17.47
2023-02-28T12:06:43.796Z,12.37
2023-02-28T12:09:20.663Z,10.33
2023-02-28T12:11:53.316Z,17.63
2023-02-28T12:14:32.245Z,11.20
2023-02-28T12:17:08.197Z,13.70
2023-02-28T12:19:41.479Z,11.87
2023-02-28T12:22:23.798Z,9.60
2023-02-28T12:25:11.910Z,9.73
2023-02-28T12:27:42.260Z,9.20
2023-02-28T12:30:19.723Z,11.50
2023-02-28T12:32:49.738Z,11.40
2023-02-28T12:35:19.959Z,10.57
2023-02-28T12:37:56.595Z,12.60
2023-02-28T12:40:24.991Z,16.60
2023-02-28T12:42:53.972Z,9.63
2023-02-28T12:45:22.713Z,13.07
2023-02-28T12:47:52.806Z,8.93
2023-02-28T12:50:21.995Z,8.47
2023-02-28T12:52:56.687Z,12.47
2023-02-28T12:55:29.534Z,9.83
2023-02-28T12:58:01.634Z,11.00
2023-02-28T13:00:34.494Z,9.03
2023-02-28T13:03:12.045Z,8.47
2023-02-28T13:05:53.123Z,8.13
2023-02-28T13:08:31.889Z,10.33
2023-02-28T13:11:02.273Z,9.57
2023-02-28T13:13:32.832Z,13.03
2023-02-28T13:16:05.313Z,7.63
2023-02-28T13:18:34.700Z,17.97
2023-02-28T13:21:02.834Z,26.93
2023-02-28T13:23:59.628Z,19.40
2023-02-28T13:26:48.205Z,8.90
2023-02-28T13:29:32.672Z,9.53
2023-02-28T13:32:19.050Z,8.27
2023-02-28T13:35:08.770Z,8.90
2023-02-28T13:37:38.585Z,9.77
2023-02-28T13:40:24.401Z,9.50
2023-02-28T13:42:53.362Z,6.43
2023-02-28T13:45:40.720Z,8.33
2023-02-28T13:48:19.669Z,15.53
2023-02-28T13:50:48.331Z,11.33
2023-02-28T13:53:31.124Z,11.00
2023-02-28T13:56:03.495Z,10.50
2023-02-28T13:58:41.162Z,10.23
2023-02-28T14:01:15.249Z,10.47
2023-02-28T14:03:52.111Z,8.53
2023-02-28T14:06:25.327Z,15.27
2023-02-28T14:08:56.032Z,24.33
2023-02-28T14:11:29.473Z,10.60
2023-02-28T14:13:57.175Z,10.57
2023-02-28T14:16:27.365Z,10.87
2023-02-28T14:19:00.117Z,9.50
2023-02-28T14:21:29.994Z,11.03
2023-02-28T14:24:12.180Z,9.67
2023-02-28T14:26:56.341Z,8.20
2023-02-28T14:29:42.085Z,9.30
2023-02-28T14:32:15.875Z,9.53
2023-02-28T14:34:50.581Z,12.47
2023-02-28T14:37:21.345Z,20.07
2023-02-28T14:39:50.721Z,10.23
2023-02-28T14:42:29.831Z,8.50
2023-02-28T14:44:58.507Z,8.93
2023-02-28T14:47:29.819Z,9.00
2023-02-28T14:50:00.300Z,9.47
2023-02-28T14:52:30.372Z,8.17
2023-02-28T14:54:59.664Z,12.40
2023-02-28T14:57:28.341Z,13.00
2023-02-28T14:59:59.970Z,17.10
2023-02-28T15:02:28.555Z,22.53
2023-02-28T15:04:57.852Z,13.93
2023-02-28T15:07:30.535Z,11.10
2023-02-28T15:10:12.551Z,9.63
2023-02-28T15:12:47.543Z,9.67
2023-02-28T15:15:19.242Z,10.57
2023-02-28T15:17:48.374Z,9.40
2023-02-28T15:20:17.300Z,8.30
2023-02-28T15:22:47.851Z,9.00
2023-02-28T15:25:18.057Z,10.73
2023-02-28T15:27:47.696Z,11.30
2023-02-28T15:30:17.878Z,11.90
2023-02-28T15:32:46.156Z,14.47
2023-02-28T15:35:23.761Z,10.23
2023-02-28T15:37:56.721Z,9.43
2023-02-28T15:40:25.657Z,9.77
2023-02-28T15:43:00.575Z,9.80
2023-02-28T15:45:29.495Z,10.27
2023-02-28T15:48:02.604Z,8.83
2023-02-28T15:50:38.720Z,22.40
2023-02-28T15:53:14.242Z,11.33
2023-02-28T15:55:42.417Z,12.33
2023-02-28T15:58:13.394Z,11.50
2023-02-28T16:00:41.378Z,10.63
2023-02-28T16:03:29.445Z,11.23
2023-02-28T16:06:16.203Z,8.80
2023-02-28T16:08:46.262Z,9.30
2023-02-28T16:11:13.981Z,9.43
2023-02-28T16:13:41.825Z,9.77
2023-02-28T16:16:09.757Z,13.57
2023-02-28T16:18:37.633Z,12.50
2023-02-28T16:21:05.639Z,9.03
2023-02-28T16:23:33.626Z,9.50
2023-02-28T16:26:05.045Z,8.40
2023-02-28T16:28:34.784Z,10.03
2023-02-28T16:31:03.666Z,7.37
2023-02-28T16:33:31.987Z,8.43
2023-02-28T16:35:59.826Z,9.93
2023-02-28T16:38:27.961Z,8.47
2023-02-28T16:40:57.517Z,8.53
2023-02-28T16:43:28.348Z,10.47
2023-02-28T16:46:20.813Z,8.73
2023-02-28T16:48:52.184Z,12.17
2023-02-28T16:51:20.523Z,10.07
2023-02-28T16:53:48.294Z,9.33
2023-02-28T16:56:19.326Z,9.23
2023-02-28T16:58:48.991Z,13.33
2023-02-28T17:01:17.609Z,12.17
2023-02-28T17:03:45.658Z,13.30
2023-02-28T17:06:18.791Z,17.63
2023-02-28T17:08:47.287Z,16.50
2023-02-28T17:11:14.909Z,14.77
2023-02-28T17:13:42.723Z,14.00
2023-02-28T17:16:16.270Z,16.90
2023-02-28T17:18:44.177Z,15.37
2023-02-28T17:21:14.868Z,14.83
2023-02-28T17:23:42.937Z,14.43
2023-02-28T17:26:14.042Z,11.37
2023-02-28T17:28:41.771Z,13.53
2023-02-28T17:31:09.976Z,8.30
2023-02-28T17:33:39.415Z,25.40
2023-02-28T17:36:07.516Z,22.57
2023-02-28T17:38:35.278Z,20.03
2023-02-28T17:41:02.947Z,17.40
2023-02-28T17:43:31.009Z,12.70
2023-02-28T17:45:59.253Z,19.53
2023-02-28T17:48:28.985Z,16.60
2023-02-28T17:50:58.609Z,18.20
2023-02-28T17:53:28.056Z,24.90
2023-02-28T17:55:55.981Z,23.13
2023-02-28T17:58:23.736Z,20.03
2023-02-28T18:00:54.756Z,18.03
2023-02-28T18:03:23.117Z,17.50
2023-02-28T18:05:51.238Z,25.03
2023-02-28T18:08:22.078Z,24.50
2023-02-28T18:10:50.073Z,29.03
2023-02-28T18:13:17.807Z,29.80
2023-02-28T18:15:45.739Z,26.10
2023-02-28T18:18:14.310Z,31.80
2023-02-28T18:20:42.873Z,63.83
2023-02-28T18:23:10.559Z,27.50
2023-02-28T18:25:42.760Z,19.63
2023-02-28T18:28:10.462Z,38.53
2023-02-28T18:30:39.964Z,26.87
2023-02-28T18:33:07.928Z,26.47
2023-02-28T18:35:35.834Z,24.03
2023-02-28T18:38:04.717Z,28.80
2023-02-28T18:40:32.610Z,23.43
2023-02-28T18:43:01.842Z,26.00
2023-02-28T18:45:29.750Z,28.70
2023-02-28T18:47:57.573Z,34.57
2023-02-28T18:50:25.317Z,35.13
2023-02-28T18:52:53.902Z,32.97
2023-02-28T18:55:23.037Z,25.80
2023-02-28T18:57:50.700Z,24.23
2023-02-28T19:00:22.529Z,34.00
2023-02-28T19:02:50.932Z,34.13
2023-02-28T19:05:18.737Z,28.50
2023-02-28T19:07:47.726Z,39.27
2023-02-28T19:10:16.557Z,32.70
2023-02-28T19:12:44.288Z,34.97
2023-02-28T19:15:12.693Z,36.33
2023-02-28T19:17:41.972Z,39.53
2023-02-28T19:20:10.656Z,36.60
2023-02-28T19:22:38.343Z,37.80
2023-02-28T19:25:06.734Z,30.57
2023-02-28T19:27:34.599Z,47.40
2023-02-28T19:30:02.846Z,39.80
2023-02-28T19:32:30.823Z,43.67
2023-02-28T19:35:01.331Z,46.80
2023-02-28T19:37:29.405Z,38.23
2023-02-28T19:39:57.995Z,37.90
2023-02-28T19:42:28.754Z,72.70
2023-02-28T19:44:57.328Z,61.90
2023-02-28T19:47:26.330Z,39.33
2023-02-28T19:49:54.627Z,35.77
2023-02-28T19:52:23.793Z,31.83
2023-02-28T19:54:52.085Z,28.27
2023-02-28T19:57:19.721Z,27.60
2023-02-28T19:59:47.582Z,27.60
2023-02-28T20:02:16.354Z,22.30
2023-02-28T20:04:44.185Z,24.93
2023-02-28T20:07:11.826Z,27.37
2023-02-28T20:09:40.898Z,29.37
2023-02-28T20:12:17.870Z,43.43
2023-02-28T20:14:51.210Z,32.63
2023-02-28T20:17:18.957Z,22.00
2023-02-28T20:19:47.123Z,20.70
2023-02-28T20:22:15.328Z,25.83
2023-02-28T20:24:44.394Z,26.70
2023-02-28T20:27:12.050Z,27.70
2023-02-28T20:29:40.452Z,36.00
2023-02-28T20:32:08.755Z,33.57
2023-02-28T20:34:37.578Z,25.33
2023-02-28T20:37:05.247Z,29.13
2023-02-28T20:39:33.221Z,43.17
2023-02-28T20:42:02.232Z,32.07
2023-02-28T20:44:30.295Z,33.20
2023-02-28T20:46:57.971Z,33.67
2023-02-28T20:49:25.688Z,42.53
2023-02-28T20:51:53.631Z,35.00
2023-02-28T20:54:21.612Z,35.80
2023-02-28T20:56:49.255Z,57.50
2023-02-28T20:59:18.446Z,46.57
2023-02-28T21:01:46.234Z,39.87
2023-02-28T21:04:14.208Z,50.60
2023-02-28T21:06:43.753Z,40.13
2023-02-28T21:09:11.642Z,45.17
2023-02-28T21:11:39.842Z,29.70
2023-02-28T21:14:11.318Z,35.80
2023-02-28T21:16:40.534Z,46.33
2023-02-28T21:19:09.218Z,52.63
2023-02-28T21:21:39.085Z,46.57
2023-02-28T21:24:07.215Z,54.17
2023-02-28T21:26:36.729Z,43.63
2023-02-28T21:29:04.507Z,29.43
2023-02-28T21:31:33.712Z,39.47
2023-02-28T21:34:03.573Z,38.97
2023-02-28T21:36:33.179Z,45.40
2023-02-28T21:39:02.360Z,50.20
2023-02-28T21:41:30.809Z,32.80
2023-02-28T21:43:58.724Z,40.13
2023-02-28T21:46:27.259Z,42.30
2023-02-28T21:48:55.990Z,35.83
2023-02-28T21:51:26.125Z,35.90
2023-02-28T21:53:53.992Z,39.00
2023-02-28T21:56:22.767Z,36.07
2023-02-28T21:58:51.076Z,47.67
2023-02-28T22:01:19.898Z,35.90
2023-02-28T22:03:48.014Z,36.10
2023-02-28T22:06:16.650Z,41.93
2023-02-28T22:08:46.753Z,51.30
2023-02-28T22:11:15.379Z,48.40
2023-02-28T22:13:43.520Z,48.77
2023-02-28T22:16:12.033Z,58.30
2023-02-28T22:18:40.481Z,80.83
2023-02-28T22:21:08.570Z,57.17
2023-02-28T22:23:36.992Z,69.30
2023-02-28T22:26:07.481Z,70.87
2023-02-28T22:28:35.575Z,51.03
2023-02-28T22:31:13.085Z,54.80
2023-02-28T22:33:40.985Z,55.33
2023-02-28T22:36:09.326Z,57.00
2023-02-28T22:38:37.250Z,58.83
2023-02-28T22:41:07.495Z,64.33
2023-02-28T22:43:35.965Z,60.83
2023-02-28T22:46:05.092Z,43.50
2023-02-28T22:48:32.994Z,59.20
2023-02-28T22:51:05.277Z,68.60
2023-02-28T22:53:33.024Z,50.63
2023-02-28T22:56:00.891Z,63.50
2023-02-28T22:58:30.197Z,59.17
2023-02-28T23:00:57.952Z,60.87
2023-02-28T23:03:27.096Z,76.90
2023-02-28T23:05:55.379Z,76.40
2023-02-28T23:08:23.299Z,53.40
2023-02-28T23:10:51.828Z,51.40
2023-02-28T23:13:20.317Z,62.27
2023-02-28T23:15:49.519Z,79.60
2023-02-28T23:18:17.461Z,45.00
2023-02-28T23:20:45.148Z,76.57
2023-02-28T23:23:13.186Z,51.77
2023-02-28T23:25:42.965Z,38.10
2023-02-28T23:28:13.966Z,54.47
2023-02-28T23:30:41.734Z,47.07
2023-02-28T23:33:10.744Z,50.53
2023-02-28T23:35:38.589Z,50.27
2023-02-28T23:38:06.564Z,62.30
2023-02-28T23:40:34.518Z,47.00
2023-02-28T23:43:02.296Z,60.27
2023-02-28T23:45:30.415Z,56.33
2023-02-28T23:47:58.571Z,50.50
2023-02-28T23:50:28.506Z,51.80
2023-02-28T23:52:58.019Z,53.23
2023-02-28T23:55:26.186Z,54.10
2023-02-28T23:57:53.984Z,36.10
